createdAt,value
2018-02-12T00:00:21.738Z,5.78
2018-02-12T00:02:51.290Z,6.40
2018-02-12T00:05:20.755Z,6.15
2018-02-12T00:07:50.276Z,5.47
2018-02-12T00:10:19.762Z,5.70
2018-02-12T00:12:49.268Z,5.60
2018-02-12T00:15:18.803Z,5.50
2018-02-12T00:17:48.306Z,6.15
2018-02-12T00:20:17.777Z,6.78
2018-02-12T00:22:47.293Z,6.43
2018-02-12T00:25:16.894Z,6.43
2018-02-12T00:27:46.373Z,8.20
2018-02-12T00:30:15.875Z,6.37
2018-02-12T00:32:45.373Z,6.53
2018-02-12T00:35:14.887Z,6.62
2018-02-12T00:37:44.356Z,6.37
2018-02-12T00:40:13.889Z,7.57
2018-02-12T00:42:43.364Z,6.90
2018-02-12T00:45:12.856Z,7.20
2018-02-12T00:47:42.349Z,8.05
2018-02-12T00:50:11.844Z,6.87
2018-02-12T00:52:41.341Z,8.50
2018-02-12T00:55:10.855Z,7.85
2018-02-12T00:57:40.359Z,7.70
2018-02-12T01:00:09.886Z,8.40
2018-02-12T01:02:39.345Z,7.50
2018-02-12T01:05:08.849Z,8.00
2018-02-12T01:07:38.357Z,6.68
2018-02-12T01:10:07.824Z,8.30
2018-02-12T01:12:37.325Z,7.45
2018-02-12T01:15:06.834Z,6.85
2018-02-12T01:17:36.344Z,6.78
2018-02-12T01:20:05.833Z,7.28
2018-02-12T01:22:35.389Z,7.05
2018-02-12T01:25:04.856Z,7.87
2018-02-12T01:27:34.348Z,7.87
2018-02-12T01:30:03.822Z,6.78
2018-02-12T01:32:33.377Z,7.47
2018-02-12T01:35:02.870Z,6.97
2018-02-12T01:37:32.366Z,7.18
2018-02-12T01:40:01.889Z,6.93
2018-02-12T01:42:31.362Z,6.25
2018-02-12T01:45:00.894Z,7.60
2018-02-12T01:47:30.372Z,7.43
2018-02-12T01:50:05.814Z,7.50
2018-02-12T01:52:35.319Z,8.02
2018-02-12T01:55:04.827Z,8.00
2018-02-12T01:57:34.299Z,8.13
2018-02-12T02:00:03.801Z,7.43
2018-02-12T02:02:33.258Z,7.82
2018-02-12T02:05:02.782Z,8.30
2018-02-12T02:07:32.286Z,8.18
2018-02-12T02:10:01.770Z,9.43
2018-02-12T02:12:31.244Z,10.07
2018-02-12T02:15:00.755Z,9.98
2018-02-12T02:17:30.244Z,10.07
2018-02-12T02:19:59.749Z,9.32
2018-02-12T02:22:29.223Z,10.20
2018-02-12T02:24:58.732Z,9.80
2018-02-12T02:27:28.258Z,11.07
2018-02-12T02:29:57.748Z,11.30
2018-02-12T02:32:27.249Z,9.75
2018-02-12T02:34:56.718Z,8.88
2018-02-12T02:37:26.234Z,11.15
2018-02-12T02:39:55.796Z,9.55
2018-02-12T02:42:25.324Z,11.35
2018-02-12T02:44:54.809Z,10.50
2018-02-12T02:47:24.310Z,10.70
2018-02-12T02:49:53.807Z,11.20
2018-02-12T02:52:23.291Z,11.40
2018-02-12T02:54:52.786Z,11.32
2018-02-12T02:57:22.263Z,10.55
2018-02-12T02:59:51.772Z,11.15
2018-02-12T03:02:21.338Z,11.35
2018-02-12T03:04:50.866Z,11.45
2018-02-12T03:07:20.328Z,10.23
2018-02-12T03:09:49.826Z,11.65
2018-02-12T03:12:19.309Z,10.90
2018-02-12T03:14:48.823Z,10.43
2018-02-12T03:17:18.326Z,10.18
2018-02-12T03:19:47.818Z,9.85
2018-02-12T03:22:17.295Z,11.82
2018-02-12T03:24:46.805Z,13.62
2018-02-12T03:27:16.284Z,11.80
2018-02-12T03:29:45.766Z,11.63
2018-02-12T03:32:15.237Z,12.15
2018-02-12T03:34:44.750Z,12.48
2018-02-12T03:37:14.268Z,12.90
2018-02-12T03:39:43.728Z,12.05
2018-02-12T03:42:13.219Z,12.13
2018-02-12T03:44:42.687Z,11.20
2018-02-12T03:47:12.220Z,12.88
2018-02-12T03:49:41.710Z,13.00
2018-02-12T03:52:11.197Z,14.30
2018-02-12T03:54:40.708Z,12.23
2018-02-12T03:57:10.188Z,14.10
2018-02-12T03:59:39.692Z,12.73
2018-02-12T04:02:09.220Z,12.57
2018-02-12T04:04:38.734Z,13.32
2018-02-12T04:07:08.213Z,12.65
2018-02-12T04:09:37.716Z,12.68
2018-02-12T04:12:07.239Z,14.18
2018-02-12T04:14:36.759Z,13.18
2018-02-12T04:17:06.234Z,12.63
2018-02-12T04:19:35.728Z,13.52
2018-02-12T04:22:05.210Z,12.13
2018-02-12T04:24:34.712Z,12.88
2018-02-12T04:27:04.322Z,14.65
2018-02-12T04:29:33.822Z,13.68
2018-02-12T04:32:03.293Z,13.68
2018-02-12T04:34:32.830Z,12.57
2018-02-12T04:37:02.308Z,13.90
2018-02-12T04:39:31.831Z,11.85
2018-02-12T04:42:01.326Z,12.07
2018-02-12T04:44:30.824Z,13.43
2018-02-12T04:47:00.283Z,13.45
2018-02-12T04:49:29.759Z,12.88
2018-02-12T04:51:59.253Z,11.30
2018-02-12T04:54:28.767Z,12.20
2018-02-12T04:56:58.251Z,12.63
2018-02-12T04:59:27.743Z,11.98
2018-02-12T05:01:57.232Z,12.55
2018-02-12T05:04:26.760Z,11.70
2018-02-12T05:06:56.242Z,12.73
2018-02-12T05:09:25.764Z,11.80
2018-02-12T05:11:55.371Z,10.30
2018-02-12T05:14:24.834Z,12.27
2018-02-12T05:16:54.339Z,12.57
2018-02-12T05:19:23.833Z,12.30
2018-02-12T05:21:53.353Z,11.45
2018-02-12T05:24:22.823Z,11.75
2018-02-12T05:26:52.338Z,11.73
2018-02-12T05:29:21.838Z,12.98
2018-02-12T05:31:51.361Z,12.10
2018-02-12T05:34:20.880Z,11.32
2018-02-12T05:36:50.449Z,11.70
2018-02-12T05:39:19.980Z,12.73
2018-02-12T05:41:49.452Z,11.77
2018-02-12T05:44:18.976Z,12.45
2018-02-12T05:46:48.452Z,11.73
2018-02-12T05:49:17.974Z,11.55
2018-02-12T05:51:47.447Z,11.02
2018-02-12T05:54:16.986Z,11.02
2018-02-12T05:56:46.462Z,12.37
2018-02-12T05:59:15.986Z,13.05
2018-02-12T06:01:45.607Z,10.20
2018-02-12T06:04:15.139Z,12.18
2018-02-12T06:06:44.658Z,11.48
2018-02-12T06:09:14.179Z,11.23
2018-02-12T06:11:43.673Z,10.50
2018-02-12T06:14:13.160Z,10.55
2018-02-12T06:16:42.666Z,10.35
2018-02-12T06:19:12.150Z,10.50
2018-02-12T06:21:41.655Z,9.43
2018-02-12T06:24:11.167Z,10.35
2018-02-12T06:26:40.635Z,8.18
2018-02-12T06:29:10.134Z,9.27
2018-02-12T06:31:39.642Z,8.02
2018-02-12T06:34:09.117Z,10.73
2018-02-12T06:36:38.611Z,9.73
2018-02-12T06:39:08.084Z,9.00
2018-02-12T06:41:37.608Z,9.52
2018-02-12T06:44:07.066Z,8.95
2018-02-12T06:46:36.564Z,10.02
2018-02-12T06:49:06.056Z,10.23
2018-02-12T06:51:35.548Z,8.95
2018-02-12T06:54:05.191Z,10.45
2018-02-12T06:56:34.709Z,9.05
2018-02-12T06:59:04.189Z,8.80
2018-02-12T07:01:33.754Z,9.88
2018-02-12T07:04:03.227Z,9.98
2018-02-12T07:06:32.930Z,10.45
2018-02-12T07:09:02.382Z,10.48
2018-02-12T07:11:31.968Z,9.70
2018-02-12T07:14:01.473Z,10.30
2018-02-12T07:16:31.066Z,10.75
2018-02-12T07:19:00.601Z,11.02
2018-02-12T07:21:30.104Z,11.30
2018-02-12T07:23:59.628Z,12.82
2018-02-12T07:26:29.160Z,10.20
2018-02-12T07:28:58.672Z,10.45
2018-02-12T07:31:28.158Z,9.52
2018-02-12T07:33:57.665Z,11.90
2018-02-12T07:36:27.228Z,10.40
2018-02-12T07:38:56.753Z,10.35
2018-02-12T07:41:26.251Z,11.20
2018-02-12T07:43:55.718Z,10.82
2018-02-12T07:46:25.252Z,10.75
2018-02-12T07:48:54.742Z,9.63
2018-02-12T07:51:24.244Z,10.63
2018-02-12T07:53:53.741Z,11.02
2018-02-12T07:56:23.280Z,10.82
2018-02-12T07:58:52.786Z,10.45
2018-02-12T08:01:22.342Z,10.63
2018-02-12T08:03:51.825Z,9.50
2018-02-12T08:06:21.312Z,9.25
2018-02-12T08:08:50.817Z,10.27
2018-02-12T08:11:20.340Z,8.88
2018-02-12T08:13:49.819Z,10.48
2018-02-12T08:16:19.331Z,9.10
2018-02-12T08:18:48.825Z,9.75
2018-02-12T08:21:18.326Z,9.30
2018-02-12T08:23:47.851Z,8.77
2018-02-12T08:26:17.363Z,10.52
2018-02-12T08:28:46.846Z,9.40
2018-02-12T08:31:16.351Z,9.48
2018-02-12T08:33:45.827Z,8.95
2018-02-12T08:36:15.345Z,8.98
2018-02-12T08:38:44.833Z,9.70
2018-02-12T08:41:14.340Z,9.43
2018-02-12T08:43:43.837Z,9.25
2018-02-12T08:46:13.334Z,9.30
2018-02-12T08:48:42.834Z,8.85
2018-02-12T08:51:12.309Z,7.57
2018-02-12T08:53:41.874Z,8.68
2018-02-12T08:56:11.389Z,7.30
2018-02-12T08:58:40.843Z,6.65
2018-02-12T09:01:10.420Z,6.50
2018-02-12T09:03:39.952Z,5.85
2018-02-12T09:06:09.443Z,5.93
2018-02-12T09:08:38.957Z,5.95
2018-02-12T09:11:08.440Z,5.25
2018-02-12T09:13:37.978Z,5.40
2018-02-12T09:16:07.448Z,5.55
2018-02-12T09:18:36.953Z,5.28
2018-02-12T09:21:06.437Z,5.05
2018-02-12T09:23:35.891Z,5.70
2018-02-12T09:26:05.401Z,5.12
2018-02-12T09:28:34.872Z,5.35
2018-02-12T09:31:05.230Z,5.60
2018-02-12T09:33:34.701Z,5.70
2018-02-12T09:36:04.188Z,5.53
2018-02-12T09:38:33.657Z,5.43
2018-02-12T09:41:03.151Z,5.22
2018-02-12T09:43:32.658Z,5.20
2018-02-12T09:46:02.126Z,4.85
2018-02-12T09:48:31.736Z,4.90
2018-02-12T09:51:01.337Z,5.40
2018-02-12T09:53:30.842Z,5.97
2018-02-12T09:56:00.458Z,5.10
2018-02-12T09:58:29.963Z,5.20
2018-02-12T10:00:59.457Z,5.93
2018-02-12T10:03:28.937Z,5.30
2018-02-12T10:05:58.415Z,4.95
2018-02-12T10:08:27.944Z,4.28
2018-02-12T10:10:57.435Z,3.80
2018-02-12T10:13:26.950Z,4.40
2018-02-12T10:15:56.420Z,3.92
2018-02-12T10:18:25.910Z,4.20
2018-02-12T10:20:55.455Z,4.40
2018-02-12T10:23:24.948Z,4.25
2018-02-12T10:25:54.493Z,4.90
2018-02-12T10:28:24.005Z,4.78
2018-02-12T10:30:53.498Z,5.28
2018-02-12T10:33:23.025Z,5.00
2018-02-12T10:35:52.495Z,4.35
2018-02-12T10:38:22.006Z,4.65
2018-02-12T10:40:51.476Z,4.37
2018-02-12T10:43:20.985Z,4.78
2018-02-12T10:45:50.457Z,4.95
2018-02-12T10:48:19.986Z,5.10
2018-02-12T10:50:49.458Z,5.35
2018-02-12T10:53:18.976Z,5.12
2018-02-12T10:55:48.459Z,6.22
2018-02-12T10:58:18.174Z,5.50
2018-02-12T11:00:47.663Z,5.60
2018-02-12T11:03:17.171Z,5.45
2018-02-12T11:05:46.663Z,4.70
2018-02-12T11:08:16.170Z,5.75
2018-02-12T11:10:45.681Z,6.72
2018-02-12T11:13:15.167Z,6.25
2018-02-12T11:15:44.680Z,7.12
2018-02-12T11:18:14.157Z,5.47
2018-02-12T11:20:43.667Z,6.78
2018-02-12T11:23:13.155Z,6.57
2018-02-12T11:25:42.650Z,5.85
2018-02-12T11:28:12.141Z,6.25
2018-02-12T11:30:41.661Z,5.07
2018-02-12T11:33:11.182Z,6.15
2018-02-12T11:35:40.660Z,4.87
2018-02-12T11:38:10.166Z,5.82
2018-02-12T11:40:39.632Z,5.03
2018-02-12T11:43:09.152Z,5.03
2018-02-12T11:45:38.612Z,4.90
2018-02-12T11:48:08.105Z,4.75
2018-02-12T11:50:37.647Z,4.37
2018-02-12T11:53:07.131Z,4.15
2018-02-12T11:55:36.641Z,4.78
2018-02-12T11:58:06.157Z,4.20
2018-02-12T12:00:35.622Z,4.60
2018-02-12T12:03:05.116Z,3.80
2018-02-12T12:05:34.625Z,4.35
2018-02-12T12:08:04.093Z,4.32
2018-02-12T12:10:33.571Z,3.40
2018-02-12T12:13:03.082Z,3.60
2018-02-12T12:15:32.588Z,3.45
2018-02-12T12:18:02.053Z,3.55
2018-02-12T12:20:31.641Z,3.85
2018-02-12T12:23:01.091Z,3.58
2018-02-12T12:25:30.579Z,4.00
2018-02-12T12:28:00.190Z,4.00
2018-02-12T12:30:29.653Z,4.22
2018-02-12T12:32:59.157Z,4.30
2018-02-12T12:35:28.685Z,4.00
2018-02-12T12:37:58.148Z,3.45
2018-02-12T12:40:27.620Z,3.62
2018-02-12T12:42:57.136Z,3.25
2018-02-12T12:45:26.645Z,3.62
2018-02-12T12:47:56.151Z,4.35
2018-02-12T12:50:25.640Z,4.00
2018-02-12T12:52:55.140Z,4.50
2018-02-12T12:55:24.616Z,3.60
2018-02-12T12:57:54.238Z,3.65
2018-02-12T13:00:23.720Z,3.80
2018-02-12T13:02:53.229Z,3.10
2018-02-12T13:05:22.699Z,3.67
2018-02-12T13:07:52.203Z,3.95
2018-02-12T13:10:21.704Z,3.60
2018-02-12T13:12:51.191Z,3.78
2018-02-12T13:15:20.695Z,2.92
2018-02-12T13:17:50.172Z,2.90
2018-02-12T13:20:19.681Z,2.92
2018-02-12T13:22:49.153Z,2.75
2018-02-12T13:25:18.657Z,2.95
2018-02-12T13:27:48.165Z,3.87
2018-02-12T13:30:17.625Z,3.45
2018-02-12T13:32:47.105Z,3.17
2018-02-12T13:35:16.542Z,3.10
2018-02-12T13:37:46.039Z,2.75
2018-02-12T13:40:15.504Z,4.75
2018-02-12T13:42:45.005Z,2.75
2018-02-12T13:45:14.455Z,3.90
2018-02-12T13:47:43.964Z,3.85
2018-02-12T13:50:13.437Z,3.90
2018-02-12T13:52:42.948Z,3.33
2018-02-12T13:55:12.476Z,3.08
2018-02-12T13:57:41.948Z,3.65
2018-02-12T14:00:11.625Z,3.87
2018-02-12T14:02:41.088Z,3.20
2018-02-12T14:05:10.594Z,2.83
2018-02-12T14:07:40.040Z,2.60
2018-02-12T14:10:09.543Z,2.90
2018-02-12T14:12:39.025Z,3.10
2018-02-12T14:15:08.509Z,3.60
2018-02-12T14:17:37.986Z,3.15
2018-02-12T14:20:07.507Z,3.10
2018-02-12T14:22:36.992Z,3.10
2018-02-12T14:25:06.507Z,4.43
2018-02-12T14:27:35.990Z,3.30
2018-02-12T14:30:05.510Z,3.87
2018-02-12T14:32:34.987Z,3.72
2018-02-12T14:35:04.516Z,3.50
2018-02-12T14:37:33.987Z,4.28
2018-02-12T14:40:03.490Z,3.97
2018-02-12T14:42:32.960Z,4.15
2018-02-12T14:45:02.465Z,4.95
2018-02-12T14:47:31.972Z,4.95
2018-02-12T14:50:01.474Z,5.78
2018-02-12T14:52:31.015Z,4.82
2018-02-12T14:55:00.511Z,5.47
2018-02-12T14:57:30.050Z,4.72
2018-02-12T14:59:59.721Z,5.45
2018-02-12T15:02:29.172Z,4.37
2018-02-12T15:04:58.682Z,6.05
2018-02-12T15:07:28.469Z,5.00
2018-02-12T15:09:57.959Z,6.20
2018-02-12T15:12:27.436Z,5.70
2018-02-12T15:14:56.933Z,4.70
2018-02-12T15:17:26.433Z,4.82
2018-02-12T15:19:55.913Z,5.05
2018-02-12T15:22:25.411Z,5.35
2018-02-12T15:24:54.906Z,5.40
2018-02-12T15:27:24.381Z,5.10
2018-02-12T15:29:53.898Z,4.53
2018-02-12T15:32:23.417Z,4.07
2018-02-12T15:34:52.872Z,4.55
2018-02-12T15:37:22.418Z,5.57
2018-02-12T15:39:51.886Z,4.68
2018-02-12T15:42:21.400Z,4.78
2018-02-12T15:44:50.915Z,4.53
2018-02-12T15:47:20.389Z,5.00
2018-02-12T15:49:49.914Z,5.68
2018-02-12T15:52:19.400Z,6.57
2018-02-12T15:54:48.907Z,7.50
2018-02-12T15:57:18.364Z,6.03
2018-02-12T15:59:47.951Z,5.07
2018-02-12T16:02:17.432Z,4.43
2018-02-12T16:04:46.920Z,5.50
2018-02-12T16:07:16.426Z,4.60
2018-02-12T16:09:45.943Z,5.60
2018-02-12T16:12:15.421Z,5.05
2018-02-12T16:14:44.982Z,4.90
2018-02-12T16:17:14.486Z,4.65
2018-02-12T16:19:43.988Z,4.65
2018-02-12T16:22:13.501Z,5.00
2018-02-12T16:24:43.032Z,4.72
2018-02-12T16:27:12.547Z,5.82
2018-02-12T16:29:42.011Z,5.10
2018-02-12T16:32:11.546Z,5.05
2018-02-12T16:34:41.000Z,5.60
2018-02-12T16:37:10.540Z,5.18
2018-02-12T16:39:40.049Z,5.10
2018-02-12T16:42:09.557Z,5.57
2018-02-12T16:44:39.033Z,6.30
2018-02-12T16:47:08.669Z,7.10
2018-02-12T16:49:38.146Z,6.65
2018-02-12T16:52:07.659Z,7.50
2018-02-12T16:54:37.154Z,5.25
2018-02-12T16:57:06.671Z,5.80
2018-02-12T16:59:36.157Z,6.25
2018-02-12T17:02:05.664Z,6.35
2018-02-12T17:04:35.209Z,5.62
2018-02-12T17:07:04.835Z,6.07
2018-02-12T17:09:34.360Z,5.18
2018-02-12T17:12:03.832Z,4.32
2018-02-12T17:14:33.344Z,7.07
2018-02-12T17:17:02.836Z,5.20
2018-02-12T17:19:32.323Z,5.32
2018-02-12T17:22:01.801Z,5.70
2018-02-12T17:24:31.298Z,5.78
2018-02-12T17:27:00.818Z,4.78
2018-02-12T17:29:30.321Z,4.37
2018-02-12T17:31:59.829Z,3.95
2018-02-12T17:34:29.294Z,3.75
2018-02-12T17:36:58.795Z,4.60
2018-02-12T17:39:28.273Z,4.05
2018-02-12T17:41:57.815Z,5.00
2018-02-12T17:44:27.275Z,5.60
2018-02-12T17:46:56.896Z,6.55
2018-02-12T17:49:26.368Z,8.32
2018-02-12T17:51:55.855Z,8.30
2018-02-12T17:54:25.348Z,6.45
2018-02-12T17:56:54.817Z,6.70
2018-02-12T17:59:24.348Z,6.07
2018-02-12T18:01:53.812Z,6.20
2018-02-12T18:04:23.296Z,7.90
2018-02-12T18:06:52.788Z,7.22
2018-02-12T18:09:22.287Z,7.40
2018-02-12T18:11:51.806Z,7.47
2018-02-12T18:14:21.364Z,6.95
2018-02-12T18:16:50.826Z,6.43
2018-02-12T18:19:20.316Z,8.68
2018-02-12T18:21:49.795Z,6.87
2018-02-12T18:24:19.321Z,7.35
2018-02-12T18:26:48.840Z,6.10
2018-02-12T18:29:18.373Z,6.05
2018-02-12T18:31:47.906Z,5.80
2018-02-12T18:34:17.397Z,5.78
2018-02-12T18:36:46.917Z,5.90
2018-02-12T18:39:16.425Z,7.00
2018-02-12T18:41:45.915Z,5.72
2018-02-12T18:44:15.441Z,6.25
2018-02-12T18:46:44.956Z,5.20
2018-02-12T18:49:14.517Z,7.12
2018-02-12T18:51:44.026Z,7.30
2018-02-12T18:54:13.519Z,7.30
2018-02-12T18:56:43.010Z,7.37
2018-02-12T18:59:12.493Z,10.98
2018-02-12T19:01:42.020Z,10.38
2018-02-12T19:04:11.516Z,12.30
2018-02-12T19:06:41.029Z,11.02
2018-02-12T19:09:10.530Z,11.63
2018-02-12T19:11:40.067Z,11.85
2018-02-12T19:14:09.560Z,10.82
2018-02-12T19:16:39.095Z,10.27
2018-02-12T19:19:08.656Z,8.98
2018-02-12T19:21:38.163Z,12.88
2018-02-12T19:24:07.707Z,10.30
2018-02-12T19:26:37.342Z,11.65
2018-02-12T19:29:06.975Z,11.45
2018-02-12T19:31:36.475Z,10.82
2018-02-12T19:34:05.984Z,9.15
2018-02-12T19:36:35.526Z,10.85
2018-02-12T19:39:05.086Z,10.95
2018-02-12T19:41:34.565Z,11.00
2018-02-12T19:44:04.074Z,12.45
2018-02-12T19:46:33.566Z,11.60
2018-02-12T19:49:03.084Z,11.52
2018-02-12T19:51:32.581Z,12.32
2018-02-12T19:54:02.275Z,12.75
2018-02-12T19:56:31.776Z,16.08
2018-02-12T19:59:01.343Z,15.35
2018-02-12T20:01:30.852Z,14.27
2018-02-12T20:04:00.394Z,13.25
2018-02-12T20:06:29.952Z,15.65
2018-02-12T20:08:59.424Z,14.55
2018-02-12T20:11:28.982Z,14.25
2018-02-12T20:13:58.469Z,12.48
2018-02-12T20:16:28.013Z,15.70
2018-02-12T20:18:57.493Z,13.45
2018-02-12T20:21:27.037Z,13.05
2018-02-12T20:23:56.512Z,12.50
2018-02-12T20:26:26.086Z,13.27
2018-02-12T20:28:55.563Z,13.38
2018-02-12T20:31:25.119Z,15.35
2018-02-12T20:33:54.637Z,14.35
2018-02-12T20:36:24.159Z,13.50
2018-02-12T20:38:53.693Z,15.20
2018-02-12T20:41:23.182Z,13.93
2018-02-12T20:43:52.967Z,13.65
2018-02-12T20:46:22.485Z,13.88
2018-02-12T20:48:51.984Z,13.88
2018-02-12T20:51:21.862Z,13.00
2018-02-12T20:53:51.677Z,13.50
2018-02-12T20:56:21.364Z,12.93
2018-02-12T20:58:50.894Z,11.68
2018-02-12T21:01:20.412Z,14.43
2018-02-12T21:03:49.871Z,15.00
2018-02-12T21:06:19.405Z,15.60
2018-02-12T21:08:48.915Z,14.87
2018-02-12T21:11:18.453Z,15.00
2018-02-12T21:13:48.731Z,15.32
2018-02-12T21:16:18.268Z,15.13
2018-02-12T21:18:47.741Z,15.05
2018-02-12T21:21:17.376Z,17.65
2018-02-12T21:23:46.878Z,16.10
2018-02-12T21:26:16.472Z,16.55
2018-02-12T21:28:46.011Z,14.35
2018-02-12T21:31:15.485Z,14.85
2018-02-12T21:33:45.016Z,16.50
2018-02-12T21:36:14.648Z,16.60
2018-02-12T21:38:44.186Z,16.17
2018-02-12T21:41:13.719Z,14.98
2018-02-12T21:43:43.286Z,17.27
2018-02-12T21:46:12.759Z,17.33
2018-02-12T21:48:42.282Z,16.17
2018-02-12T21:51:11.799Z,16.25
2018-02-12T21:53:41.271Z,17.45
2018-02-12T21:56:10.775Z,17.90
2018-02-12T21:58:40.267Z,15.65
2018-02-12T22:01:09.778Z,16.35
2018-02-12T22:03:39.260Z,15.75
2018-02-12T22:06:08.768Z,15.90
2018-02-12T22:08:38.244Z,15.18
2018-02-12T22:11:07.748Z,15.85
2018-02-12T22:13:37.248Z,16.10
2018-02-12T22:16:06.759Z,14.82
2018-02-12T22:18:36.251Z,14.93
2018-02-12T22:21:05.770Z,15.00
2018-02-12T22:23:35.321Z,15.73
2018-02-12T22:26:04.852Z,17.73
2018-02-12T22:28:34.320Z,15.40
2018-02-12T22:31:03.843Z,15.20
2018-02-12T22:33:33.334Z,14.68
2018-02-12T22:36:02.905Z,15.50
2018-02-12T22:38:32.410Z,14.02
2018-02-12T22:41:01.918Z,13.98
2018-02-12T22:43:31.554Z,15.40
2018-02-12T22:46:01.033Z,15.73
2018-02-12T22:48:30.519Z,15.02
2018-02-12T22:50:59.997Z,15.45
2018-02-12T22:53:29.498Z,15.95
2018-02-12T22:55:58.993Z,17.08
2018-02-12T22:58:28.522Z,17.05
2018-02-12T23:00:58.055Z,15.90
2018-02-12T23:03:27.570Z,15.75
2018-02-12T23:05:57.109Z,16.58
2018-02-12T23:08:26.554Z,16.65
2018-02-12T23:10:56.069Z,15.82
2018-02-12T23:13:25.558Z,16.75
2018-02-12T23:15:55.134Z,17.12
2018-02-12T23:18:24.639Z,15.50
2018-02-12T23:20:54.146Z,16.33
2018-02-12T23:23:23.648Z,16.02
2018-02-12T23:25:53.154Z,16.65
2018-02-12T23:28:22.638Z,16.12
2018-02-12T23:30:52.149Z,16.55
2018-02-12T23:33:21.618Z,17.58
2018-02-12T23:35:51.103Z,15.63
2018-02-12T23:38:20.609Z,16.45
2018-02-12T23:40:50.127Z,16.33
2018-02-12T23:43:19.655Z,15.75
2018-02-12T23:45:49.135Z,18.10
2018-02-12T23:48:18.644Z,15.05
2018-02-12T23:50:48.130Z,15.68
2018-02-12T23:53:17.620Z,15.93
2018-02-12T23:55:47.106Z,16.08
2018-02-12T23:58:16.642Z,15.57
